Accueil
METAR-TAF:

METAR-TAF

Aéroports :

Aéroport international Ambouli

Djibouti, Djibouti

latitude: 11-33N, longitude: 043-10E, altitude: 49 m

Observation

Le bulletin a été fait il y a 3 heures et 7 minutes, à 22:00 UTC
Vent calme
Température 29°C
Humidité 89%
Pression 1015 hPa
Visibilité 10 km ou plus
Nuages épars à une hauteur de 2300 ft

METAR: HDAM 222200Z 00000KT 9999 SCT023 29/27 Q1015

Heure: 04:07 (01:07 UTC)

Prévision

Le bulletin a été fait il y a 2 heures et 7 minutes, à 23:00 UTC
Prévision valable du 23 à 00 UTC au 23 à 24 UTC
Vent 3 kt de direction variable
Visibilité 10 km ou plus
Nuages épars à une hauteur de 2000 ft
Nuages épars à une hauteur de 3000 ft
Evoluant progressivement
du 23 à 06 UTC au 23 à 12 UTC
Vent 10 kt de est
Nuages épars à une hauteur de 2000 ft
Nuages épars à une hauteur de 3000 ft

TAF: HDAM 222300Z 2300/2324 VRB03KT 9999 SCT020 SCT030 BECMG 2306/2312 08010KT SCT020 SCT030

Observations et prévisions météorologiques de plus de 4000 aéroports (messages METAR et TAF).

Les stations disponibles sont représentées par des disques jaunes et rouges sur la carte.

Passer la souris dessus pour voir le nom de la station.

Cliquer dessus pour voir les observations et prévisions météorologiques.

Pour changer de carte: cliquez sur les boutons verts avec une croix noire pour zoomer, sur le bouton vert avec un tiret pour effectuer un zoom arrière, ou sur les flèches vertes pour les cartes adjacentes.


METAR-TAF: